Time;durP1;ratioP1;P1;durP2;ratioP2;P2;SDS_P1;SDS_P2;PMS_P1;PMS_P2;Temp;Humidity;BMP_temperature;BMP_pressure;BME280_temperature;BME280_humidity;BME280_pressure;Samples;Min_cycle;Max_cycle;Signal;HPM_P1;HPM_P2
2020/12/16 00:00:48;;;;;;;57.97;22.70;;;;;;;3.41;81.22;100463.75;126630;1095;24324;-65
2020/12/16 00:03:17;;;;;;;55.58;22.25;;;;;;;3.42;81.03;100463.32;126382;1097;23364;-66
2020/12/16 00:05:47;;;;;;;53.93;21.70;;;;;;;3.45;81.04;100456.96;126449;1095;23366;-66
2020/12/16 00:08:16;;;;;;;71.45;26.07;;;;;;;3.48;81.17;100466.35;126772;1095;23769;-64
2020/12/16 00:10:46;;;;;;;87.05;34.85;;;;;;;3.49;80.75;100465.95;126387;1097;27865;-65
2020/12/16 00:13:15;;;;;;;106.97;42.63;;;;;;;3.50;81.10;100461.21;126882;1095;23332;-65
2020/12/16 00:15:46;;;;;;;113.25;42.80;;;;;;;3.49;81.06;100460.43;126435;1096;27843;-66
2020/12/16 00:18:16;;;;;;;112.43;41.47;;;;;;;3.50;81.21;100466.73;126247;1096;25213;-66
2020/12/16 00:20:45;;;;;;;115.27;40.07;;;;;;;3.50;81.12;100470.25;126763;1095;23461;-66
2020/12/16 00:23:15;;;;;;;92.47;34.63;;;;;;;3.53;81.38;100483.21;126839;1095;23481;-65
2020/12/16 00:25:45;;;;;;;81.70;30.50;;;;;;;3.52;81.10;100465.08;126397;1097;24121;-65
2020/12/16 00:28:15;;;;;;;74.73;28.80;;;;;;;3.52;81.17;100478.13;126642;1097;23412;-66
2020/12/16 00:30:47;;;;;;;;;;;;;;;3.55;81.16;100474.50;126831;1095;23316;-65
2020/12/16 00:33:17;;;;;;;70.97;27.20;;;;;;;3.57;81.39;100481.16;127490;1096;21509;-65
2020/12/16 00:35:47;;;;;;;67.50;23.38;;;;;;;3.59;81.22;100489.80;126585;1096;23453;-65
2020/12/16 00:38:16;;;;;;;59.67;24.27;;;;;;;3.61;81.29;100498.42;126794;1095;23324;-65
2020/12/16 00:40:46;;;;;;;54.30;22.13;;;;;;;3.63;81.29;100500.75;126495;1095;26920;-65
2020/12/16 00:43:16;;;;;;;50.80;19.07;;;;;;;3.62;81.22;100505.48;126419;1095;26418;-65
2020/12/16 00:45:45;;;;;;;44.13;17.40;;;;;;;3.61;81.37;100514.98;126255;1096;23781;-65
2020/12/16 00:48:15;;;;;;;40.83;16.37;;;;;;;3.60;80.98;100512.66;126342;1095;23396;-65
2020/12/16 00:50:44;;;;;;;38.53;14.93;;;;;;;3.60;81.20;100507.90;126574;1095;23345;-65
2020/12/16 00:53:13;;;;;;;35.97;14.67;;;;;;;3.61;81.29;100506.70;126361;1095;26399;-64
2020/12/16 00:55:43;;;;;;;35.87;15.40;;;;;;;3.63;81.15;100500.75;126803;1098;23329;-65
2020/12/16 00:58:12;;;;;;;40.57;15.90;;;;;;;3.64;81.27;100497.55;128101;1096;23480;-66
2020/12/16 01:00:42;;;;;;;45.53;17.67;;;;;;;3.65;81.14;100509.39;126673;1095;23568;-65
2020/12/16 01:03:13;;;;;;;38.50;14.80;;;;;;;3.65;81.29;100514.91;126562;1097;24518;-65
2020/12/16 01:05:42;;;;;;;38.30;16.03;;;;;;;3.62;81.17;100507.49;126429;1095;26871;-65
2020/12/16 01:08:11;;;;;;;37.80;14.45;;;;;;;3.62;81.37;100510.25;126658;1095;27886;-65
2020/12/16 01:10:41;;;;;;;36.67;14.43;;;;;;;3.62;81.18;100519.29;126396;1095;23387;-65
2020/12/16 01:13:12;;;;;;;40.57;14.80;;;;;;;3.63;81.10;100512.58;126365;1095;23379;-65
2020/12/16 01:15:41;;;;;;;36.25;13.15;;;;;;;3.65;81.28;100517.67;126491;1095;23501;-65
2020/12/16 01:18:10;;;;;;;36.67;15.03;;;;;;;3.67;80.97;100516.05;126446;1097;23333;-64
2020/12/16 01:20:39;;;;;;;35.50;13.97;;;;;;;3.69;81.27;100521.13;126479;1095;23460;-66
2020/12/16 01:23:24;;;;;;;39.55;16.55;;;;;;;3.67;81.37;100518.80;127357;1096;25354;-66
2020/12/16 01:25:53;;;;;;;49.85;18.85;;;;;;;3.68;81.04;100522.36;126674;1095;23696;-65
2020/12/16 01:28:22;;;;;;;45.33;18.37;;;;;;;3.68;81.25;100520.38;126502;1095;24175;-65
2020/12/16 01:30:52;;;;;;;48.50;18.50;;;;;;;3.69;81.11;100510.88;126190;1097;23384;-66
2020/12/16 01:33:21;;;;;;;44.10;14.90;;;;;;;3.67;81.17;100505.00;126425;1095;23379;-66
2020/12/16 01:35:50;;;;;;;38.60;14.60;;;;;;;3.64;81.20;100511.36;126458;1095;23311;-66
2020/12/16 01:38:19;;;;;;;36.93;14.07;;;;;;;3.63;81.28;100520.08;126162;1097;23388;-65
2020/12/16 01:40:48;;;;;;;40.35;15.85;;;;;;;3.62;80.78;100533.09;126418;1090;27465;-66
2020/12/16 01:43:18;;;;;;;37.23;14.83;;;;;;;3.65;81.36;100537.00;126463;1097;23372;-65
2020/12/16 01:45:47;;;;;;;36.53;14.77;;;;;;;3.68;81.31;100547.20;126584;1096;25102;-65
2020/12/16 01:48:16;;;;;;;36.10;13.95;;;;;;;3.68;81.11;100544.44;126806;1095;23319;-66
2020/12/16 01:50:45;;;;;;;33.37;13.23;;;;;;;3.68;81.14;100542.47;126515;1095;27890;-65
2020/12/16 01:53:16;;;;;;;35.37;14.50;;;;;;;3.67;81.30;100551.16;126460;1090;24825;-65
2020/12/16 01:55:46;;;;;;;34.73;14.33;;;;;;;3.66;81.45;100550.37;126318;1097;26409;-65
2020/12/16 01:58:19;;;;;;;35.60;12.27;;;;;;;3.65;81.17;100548.83;126454;1095;23319;-65
2020/12/16 02:00:50;;;;;;;31.20;11.30;;;;;;;3.62;81.13;100557.19;126552;1095;24929;-66
2020/12/16 02:03:23;;;;;;;27.90;11.18;;;;;;;3.60;81.31;100554.07;126536;1095;23314;-65
2020/12/16 02:05:56;;;;;;;28.05;10.20;;;;;;;3.61;81.22;100550.88;126621;1095;23379;-66
2020/12/16 02:08:30;;;;;;;35.77;12.20;;;;;;;3.63;81.14;100555.97;126811;1095;23435;-66
2020/12/16 02:11:02;;;;;;;27.63;9.90;;;;;;;3.61;81.17;100561.92;126565;1095;23339;-65
2020/12/16 02:13:31;;;;;;;26.90;11.27;;;;;;;3.64;81.24;100552.77;126568;1095;23308;-66
2020/12/16 02:16:01;;;;;;;30.07;11.30;;;;;;;3.66;81.20;100550.37;126760;1095;23315;-66
2020/12/16 02:18:30;;;;;;;28.67;11.00;;;;;;;3.69;81.25;100557.03;126341;1095;26778;-65
2020/12/16 02:20:59;;;;;;;31.07;11.20;;;;;;;3.67;81.08;100551.94;126267;1097;23390;-65
2020/12/16 02:23:30;;;;;;;35.40;13.00;;;;;;;3.68;80.87;100550.75;126274;1097;26783;-65
2020/12/16 02:25:59;;;;;;;34.95;11.10;;;;;;;3.67;81.11;100540.89;126388;1095;23312;-66
2020/12/16 02:28:28;;;;;;;31.55;12.00;;;;;;;3.68;81.22;100545.23;126295;1090;30194;-66
2020/12/16 02:30:59;;;;;;;29.00;11.67;;;;;;;3.68;81.17;100545.23;126442;1095;23379;-66
2020/12/16 02:33:28;;;;;;;31.02;11.45;;;;;;;3.72;81.38;100547.91;126369;1095;23308;-65
2020/12/16 02:35:57;;;;;;;28.90;10.87;;;;;;;3.74;81.34;100560.09;126634;1095;23517;-66
2020/12/16 02:38:26;;;;;;;26.60;11.07;;;;;;;3.76;81.19;100554.14;126321;1096;28279;-64
2020/12/16 02:40:56;;;;;;;29.33;9.83;;;;;;;3.80;81.43;100563.13;126222;1096;23697;-65
2020/12/16 02:43:25;;;;;;;27.00;9.43;;;;;;;3.81;81.47;100567.43;126150;1095;23361;-65
2020/12/16 02:45:55;;;;;;;29.47;8.57;;;;;;;3.83;81.03;100568.57;126075;1095;25144;-65
2020/12/16 02:48:25;;;;;;;28.25;9.50;;;;;;;3.85;81.44;100573.66;127289;1095;26816;-66
2020/12/16 02:50:54;;;;;;;28.03;9.53;;;;;;;3.84;81.10;100575.67;126791;1095;23309;-65
2020/12/16 02:53:24;;;;;;;28.70;8.83;;;;;;;3.86;81.18;100573.26;126317;1095;23873;-64
2020/12/16 02:55:53;;;;;;;29.17;9.90;;;;;;;3.86;81.25;100576.02;126589;1095;26532;-65
2020/12/16 02:58:23;;;;;;;26.30;10.17;;;;;;;3.90;81.24;100578.70;126522;1095;26837;-65
2020/12/16 03:00:51;;;;;;;;;;;;;;;3.90;81.21;100571.20;126443;1096;25206;-66
2020/12/16 03:03:21;;;;;;;28.60;11.85;;;;;;;3.90;81.23;100565.67;126402;1095;23141;-64
2020/12/16 03:05:50;;;;;;;29.50;11.55;;;;;;;3.90;81.25;100565.67;126126;1096;23312;-66
2020/12/16 03:08:20;;;;;;;29.30;11.10;;;;;;;3.90;80.96;100560.16;126767;1095;23311;-65
2020/12/16 03:10:49;;;;;;;35.67;11.67;;;;;;;3.90;81.27;100565.67;126703;1097;23320;-66
2020/12/16 03:13:18;;;;;;;32.10;11.35;;;;;;;3.93;81.50;100564.05;126136;1096;23360;-65
2020/12/16 03:15:47;;;;;;;35.93;13.77;;;;;;;3.92;81.24;100574.31;126329;1095;23717;-66
2020/12/16 03:18:16;;;;;;;39.47;15.30;;;;;;;3.95;81.32;100580.98;126134;1097;23373;-66
2020/12/16 03:20:45;;;;;;;39.97;16.90;;;;;;;3.97;81.37;100582.09;126113;1090;23520;-66
2020/12/16 03:23:19;;;;;;;46.10;18.27;;;;;;;4.00;81.27;100585.98;126130;1097;23315;-65
2020/12/16 03:25:48;;;;;;;36.80;15.32;;;;;;;4.00;81.39;100586.77;126473;1096;23322;-66
2020/12/16 03:28:17;;;;;;;38.60;14.25;;;;;;;3.99;81.43;100590.73;126263;1097;27849;-65
2020/12/16 03:30:47;;;;;;;38.87;14.23;;;;;;;3.98;81.37;100588.39;126342;1097;23880;-65
2020/12/16 03:33:20;;;;;;;35.03;14.10;;;;;;;4.00;81.55;100591.52;126144;1095;25083;-66
2020/12/16 03:35:49;;;;;;;34.83;13.63;;;;;;;4.03;81.48;100596.95;126571;1095;23311;-66
2020/12/16 03:38:18;;;;;;;30.13;13.20;;;;;;;4.06;81.48;100590.59;126471;1095;23418;-66
2020/12/16 03:40:47;;;;;;;33.67;13.80;;;;;;;4.09;81.42;100605.54;126364;1096;23300;-66
2020/12/16 03:43:16;;;;;;;33.83;13.30;;;;;;;4.08;81.10;100604.75;126403;1095;25178;-66
2020/12/16 03:45:46;;;;;;;36.23;13.87;;;;;;;4.02;81.24;100606.46;126341;1096;23376;-66
2020/12/16 03:48:15;;;;;;;33.83;11.87;;;;;;;4.03;81.15;100607.25;126515;1095;24032;-66
2020/12/16 03:50:44;;;;;;;31.93;13.73;;;;;;;4.02;81.13;100609.23;126354;1090;23584;-65
2020/12/16 03:53:13;;;;;;;34.47;13.90;;;;;;;4.00;81.24;100606.11;126134;1097;23457;-65
2020/12/16 03:55:42;;;;;;;33.43;14.83;;;;;;;4.04;81.38;100612.34;126308;1096;23375;-65
2020/12/16 03:58:12;;;;;;;33.73;16.13;;;;;;;4.08;81.36;100612.26;126374;1095;23315;-65
2020/12/16 04:00:41;;;;;;;32.17;14.30;;;;;;;4.14;81.37;100604.27;126037;1097;29480;-65
2020/12/16 04:03:14;;;;;;;36.87;14.93;;;;;;;4.19;81.45;100620.33;127430;1097;26431;-66
2020/12/16 04:05:43;;;;;;;32.57;15.13;;;;;;;4.21;81.13;100610.41;126361;1095;23373;-65
2020/12/16 04:08:12;;;;;;;37.40;14.37;;;;;;;4.22;81.04;100617.48;126334;1097;28235;-65
2020/12/16 04:10:41;;;;;;;35.43;14.63;;;;;;;4.19;81.24;100618.35;126347;1095;23386;-65
2020/12/16 04:13:14;;;;;;;33.97;11.90;;;;;;;4.18;81.51;100625.07;126076;1097;23518;-65
2020/12/16 04:15:45;;;;;;;32.23;12.30;;;;;;;4.19;81.49;100623.09;126392;1097;23366;-65
2020/12/16 04:18:13;;;;;;;;;;;;;;;4.19;81.53;100615.59;126554;1095;23400;-65
2020/12/16 04:20:43;;;;;;;35.07;13.50;;;;;;;4.19;81.58;100625.86;126382;1095;21493;-66
2020/12/16 04:23:12;;;;;;;33.43;13.60;;;;;;;4.22;81.33;100613.97;126390;1096;25018;-65
2020/12/16 04:25:41;;;;;;;57.13;21.80;;;;;;;4.20;81.63;100619.14;126376;1095;23364;-65
2020/12/16 04:28:11;;;;;;;65.57;25.00;;;;;;;4.22;81.31;100614.72;126743;1097;23322;-65
2020/12/16 04:30:42;;;;;;;69.17;27.07;;;;;;;4.25;81.14;100613.09;126414;1097;23512;-65
2020/12/16 04:33:12;;;;;;;89.27;34.90;;;;;;;4.24;81.22;100609.58;126563;1095;23419;-65
2020/12/16 04:35:41;;;;;;;81.03;35.17;;;;;;;4.25;81.53;100613.88;126374;1097;23301;-65
2020/12/16 04:38:11;;;;;;;85.13;38.10;;;;;;;4.24;81.57;100609.58;126496;1096;23315;-65
2020/12/16 04:40:42;;;;;;;83.90;35.38;;;;;;;4.25;81.65;100613.88;126422;1095;23410;-66
2020/12/16 04:43:17;;;;;;;66.57;30.23;;;;;;;4.25;81.48;100613.09;126402;1090;23346;-66
2020/12/16 04:45:47;;;;;;;58.50;26.77;;;;;;;4.24;81.48;100611.55;126509;1097;23412;-67
2020/12/16 04:48:21;;;;;;;46.80;21.20;;;;;;;4.23;81.57;100610.77;126636;1095;27812;-66
2020/12/16 04:50:51;;;;;;;35.28;14.83;;;;;;;4.22;81.26;100614.72;126936;1095;23323;-64
2020/12/16 04:53:24;;;;;;;34.70;13.77;;;;;;;4.23;81.32;100612.75;126528;1090;23305;-65
2020/12/16 04:55:54;;;;;;;35.93;14.97;;;;;;;4.24;81.45;100611.55;126666;1090;23304;-65
2020/12/16 04:58:23;;;;;;;37.37;13.47;;;;;;;4.25;81.38;100610.33;126446;1097;23465;-65
2020/12/16 05:00:52;;;;;;;37.20;16.10;;;;;;;4.28;81.28;100621.33;126800;1095;23418;-66
2020/12/16 05:03:23;;;;;;;39.80;15.13;;;;;;;4.27;81.26;100625.29;126536;1095;24994;-65
2020/12/16 05:05:52;;;;;;;32.40;10.97;;;;;;;4.25;81.18;100637.97;126472;1095;23322;-66
2020/12/16 05:08:23;;;;;;;29.67;11.50;;;;;;;4.27;81.14;100628.05;126425;1090;23403;-64
2020/12/16 05:10:52;;;;;;;34.65;12.75;;;;;;;4.27;81.33;100625.29;126323;1097;23380;-65
2020/12/16 05:13:25;;;;;;;39.43;13.90;;;;;;;4.28;81.43;100624.09;126856;1095;23310;-65
2020/12/16 05:16:01;;;;;;;38.80;16.07;;;;;;;4.31;81.58;100628.75;126613;1096;23366;-65
2020/12/16 05:18:30;;;;;;;39.03;17.27;;;;;;;4.31;81.57;100628.75;126580;1090;23818;-65
2020/12/16 05:21:01;;;;;;;40.15;16.85;;;;;;;4.32;81.51;100637.83;126554;1095;23379;-65
2020/12/16 05:23:31;;;;;;;34.40;16.17;;;;;;;4.34;81.32;100632.66;126569;1097;23415;-66
2020/12/16 05:26:09;;;;;;;40.10;17.50;;;;;;;4.33;81.35;100642.92;126550;1097;23408;-66
2020/12/16 05:28:40;;;;;;;31.13;13.20;;;;;;;4.33;81.24;100647.67;126827;1095;23324;-64
2020/12/16 05:31:12;;;;;;;34.75;13.80;;;;;;;4.34;81.32;100649.23;126535;1095;26392;-66
2020/12/16 05:33:42;;;;;;;25.80;11.07;;;;;;;4.35;81.36;100648.02;126489;1095;23357;-64
2020/12/16 05:36:12;;;;;;;29.67;12.40;;;;;;;4.36;81.37;100646.83;126545;1095;23311;-65
2020/12/16 05:38:52;;;;;;;26.07;10.57;;;;;;;4.34;81.37;100644.50;126647;1097;23558;-65
2020/12/16 05:41:27;;;;;;;24.32;10.13;;;;;;;4.34;81.29;100650.02;126587;1095;23324;-65
2020/12/16 05:44:17;;;;;;;26.55;10.65;;;;;;;4.33;81.13;100659.51;126350;1095;27799;-65
2020/12/16 05:46:47;;;;;;;25.47;10.10;;;;;;;4.34;81.08;100652.00;126657;1097;23379;-57
2020/12/16 05:49:23;;;;;;;;;;;;;;;4.33;81.28;100659.51;126614;1096;26302;-59
2020/12/16 05:52:01;;;;;;;26.10;9.23;;;;;;;4.33;81.14;100661.48;126749;1095;24580;-60
2020/12/16 05:54:31;;;;;;;22.33;7.97;;;;;;;4.32;80.97;100673.77;126973;1095;23379;-59
2020/12/16 05:57:13;;;;;;;24.40;8.38;;;;;;;4.30;81.08;100678.94;126789;1096;23315;-57
2020/12/16 06:00:01;;;;;;;23.33;8.47;;;;;;;4.30;80.89;100676.96;126664;1095;28960;-59
2020/12/16 06:02:36;;;;;;;22.27;8.23;;;;;;;4.29;81.10;100680.91;126462;1095;23480;-59
2020/12/16 06:05:07;;;;;;;23.07;8.37;;;;;;;4.36;81.23;100675.25;126675;1096;23308;-58
2020/12/16 06:07:40;;;;;;;20.90;7.33;;;;;;;4.38;80.95;100680.34;126721;1097;25089;-59
2020/12/16 06:10:10;;;;;;;25.17;7.57;;;;;;;4.40;81.17;100689.78;126728;1097;28164;-59
2020/12/16 06:12:41;;;;;;;23.38;7.00;;;;;;;4.43;81.26;100693.69;126806;1095;23339;-61
2020/12/16 06:15:13;;;;;;;23.50;7.70;;;;;;;4.42;81.23;100684.60;126749;1090;23366;-59
2020/12/16 06:17:44;;;;;;;20.45;7.25;;;;;;;4.45;81.23;100688.51;126675;1095;23454;-59
2020/12/16 06:20:15;;;;;;;23.43;9.00;;;;;;;4.49;81.00;100689.21;126728;1096;23520;-58
2020/12/16 06:22:45;;;;;;;;;;;;;;;4.54;80.88;100688.69;127032;1097;23517;-59
2020/12/16 06:25:18;;;;;;;24.53;8.47;;;;;;;4.55;80.98;100695.80;127041;1095;21522;-59
2020/12/16 06:27:50;;;;;;;24.00;9.50;;;;;;;4.55;81.08;100696.55;126965;1095;23322;-62
2020/12/16 06:30:27;;;;;;;25.47;9.73;;;;;;;4.54;80.90;100702.52;126817;1095;23373;-58
2020/12/16 06:33:09;;;;;;;30.07;10.47;;;;;;;4.52;81.16;100702.16;127012;1096;26334;-60
2020/12/16 06:35:41;;;;;;;29.87;11.13;;;;;;;4.53;81.10;100717.56;126399;1095;23467;-58
2020/12/16 06:38:21;;;;;;;27.40;10.50;;;;;;;4.53;81.04;100712.03;126574;1095;23408;-59
2020/12/16 06:40:52;;;;;;;30.12;10.63;;;;;;;4.54;80.98;100721.87;126784;1095;23440;-61
2020/12/16 06:43:38;;;;;;;29.17;10.80;;;;;;;4.54;80.95;100724.64;126484;1097;23426;-60
2020/12/16 06:46:46;;;;;;;27.45;10.45;;;;;;;4.56;80.73;100723.01;126350;1096;26350;-60
2020/12/16 06:49:38;;;;;;;29.27;11.00;;;;;;;4.56;81.15;100733.28;126684;1095;23319;-58
2020/12/16 06:52:10;;;;;;;29.73;11.43;;;;;;;4.56;80.97;100736.05;126620;1097;23311;-59
2020/12/16 06:54:47;;;;;;;30.63;10.27;;;;;;;4.52;80.94;100730.59;126682;1095;24794;-60
2020/12/16 06:57:22;;;;;;;27.50;9.40;;;;;;;4.54;80.51;100733.72;126493;1095;23366;-57
2020/12/16 06:59:53;;;;;;;27.50;9.77;;;;;;;4.57;80.89;100734.86;126933;1095;23423;-59
2020/12/16 07:02:34;;;;;;;27.70;11.10;;;;;;;4.56;80.99;100744.34;128404;1096;26100;-59
2020/12/16 07:05:07;;;;;;;29.77;10.57;;;;;;;4.54;80.75;100742.02;126763;1096;23351;-59
2020/12/16 07:07:45;;;;;;;30.23;11.20;;;;;;;4.54;80.92;100742.02;126511;1095;23444;-59
2020/12/16 07:10:53;;;;;;;32.00;10.70;;;;;;;4.54;80.83;100753.07;126702;1095;23460;-60
2020/12/16 07:13:30;;;;;;;27.93;10.03;;;;;;;4.50;80.78;100755.13;126421;1090;26350;-57
2020/12/16 07:16:07;;;;;;;29.00;10.43;;;;;;;4.49;80.88;100753.55;126933;1095;23777;-59
2020/12/16 07:18:48;;;;;;;31.65;10.60;;;;;;;4.46;80.78;100762.72;126777;1097;26462;-62
2020/12/16 07:21:29;;;;;;;30.10;11.27;;;;;;;4.46;81.06;100756.40;126918;1095;23330;-60
2020/12/16 07:24:13;;;;;;;31.97;13.07;;;;;;;4.49;81.21;100763.86;127003;1095;23316;-58
2020/12/16 07:26:46;;;;;;;29.60;12.17;;;;;;;4.49;81.01;100763.86;126561;1095;26036;-57
2020/12/16 07:29:22;;;;;;;33.47;14.23;;;;;;;4.48;81.07;100774.12;127409;1095;23412;-58
2020/12/16 07:32:00;;;;;;;31.53;10.83;;;;;;;4.50;81.20;100771.72;126563;1090;23292;-57
2020/12/16 07:34:30;;;;;;;34.70;12.33;;;;;;;4.54;81.37;100763.34;126916;1097;23404;-59
2020/12/16 07:37:06;;;;;;;33.00;12.70;;;;;;;4.58;81.30;100764.05;126718;1095;23324;-59
2020/12/16 07:39:46;;;;;;;33.40;12.37;;;;;;;4.62;81.29;100762.78;126738;1095;23312;-59
2020/12/16 07:42:21;;;;;;;32.90;13.07;;;;;;;4.67;81.55;100767.83;127204;1090;23324;-58
2020/12/16 07:44:52;;;;;;;30.57;12.93;;;;;;;4.71;81.59;100764.98;126676;1095;23330;-59
2020/12/16 07:47:24;;;;;;;;;;;;;;;4.75;81.61;100768.45;126865;1095;27663;-60
2020/12/16 07:49:55;;;;;;;33.53;13.30;;;;;;;4.76;81.51;100768.02;126722;1095;21506;-59
2020/12/16 07:52:28;;;;;;;37.17;13.48;;;;;;;4.75;81.46;100774.77;126649;1096;23315;-61
2020/12/16 07:54:59;;;;;;;36.40;14.07;;;;;;;4.76;81.20;100767.23;126541;1095;26350;-60
2020/12/16 07:57:31;;;;;;;36.73;14.10;;;;;;;4.76;81.17;100775.53;126653;1095;23368;-58
2020/12/16 08:00:02;;;;;;;32.87;13.87;;;;;;;4.77;81.14;100785.40;126975;1097;23380;-58
2020/12/16 08:02:32;;;;;;;39.17;16.70;;;;;;;4.78;81.22;100778.64;130483;1096;23241;-60
2020/12/16 08:05:03;;;;;;;48.00;21.20;;;;;;;4.76;81.48;100779.08;129872;1096;23372;-60
2020/12/16 08:07:34;;;;;;;47.23;20.50;;;;;;;4.78;81.21;100786.95;130550;1095;23118;-61
2020/12/16 08:10:07;;;;;;;46.73;20.37;;;;;;;4.77;81.28;100785.40;127063;1095;23356;-60
2020/12/16 08:12:42;;;;;;;41.27;18.20;;;;;;;4.81;81.39;100788.88;126986;1095;23484;-58
2020/12/16 08:15:16;;;;;;;39.80;16.70;;;;;;;4.84;81.38;100793.56;126429;1090;23309;-56
2020/12/16 08:17:51;;;;;;;39.60;16.03;;;;;;;4.87;81.34;100798.23;127387;1096;23315;-58
2020/12/16 08:20:26;;;;;;;41.50;18.30;;;;;;;4.88;81.28;100799.80;126350;1095;23384;-59
2020/12/16 08:23:00;;;;;;;44.27;18.63;;;;;;;4.91;81.23;100798.93;127997;1097;23319;-61
2020/12/16 08:25:31;;;;;;;42.20;18.63;;;;;;;4.94;81.30;100798.84;126616;1096;23306;-61
2020/12/16 08:27:59;;;;;;;;;;;;;;;4.98;81.49;100803.55;126694;1095;23411;-62
2020/12/16 08:30:31;;;;;;;40.67;18.42;;;;;;;4.99;81.58;100808.64;127431;1095;21496;-60
2020/12/16 08:33:04;;;;;;;48.35;19.52;;;;;;;5.03;81.33;100808.59;126563;1095;23345;-58
2020/12/16 08:35:37;;;;;;;73.93;29.70;;;;;;;5.06;81.31;100816.02;126387;1095;23369;-59
2020/12/16 08:38:10;;;;;;;66.63;28.80;;;;;;;5.07;81.41;100812.81;126626;1090;23379;-58
2020/12/16 08:40:45;;;;;;;60.80;28.05;;;;;;;5.10;81.48;100820.27;126200;1095;26817;-59
2020/12/16 08:43:20;;;;;;;64.73;28.90;;;;;;;5.13;81.25;100822.17;126672;1095;27771;-58
2020/12/16 08:45:58;;;;;;;56.13;25.40;;;;;;;5.17;81.50;100825.67;126422;1095;25080;-56
2020/12/16 08:48:29;;;;;;;52.40;23.37;;;;;;;5.17;81.44;100825.67;126502;1095;27970;-57
2020/12/16 08:51:06;;;;;;;58.13;22.98;;;;;;;5.19;81.21;100830.77;126795;1095;23320;-58
2020/12/16 08:53:53;;;;;;;62.03;27.03;;;;;;;5.20;81.33;100838.64;126321;1097;23520;-56
2020/12/16 08:56:31;;;;;;;61.30;26.93;;;;;;;5.22;81.18;100832.66;127120;1095;27790;-56
2020/12/16 08:59:09;;;;;;;54.53;24.07;;;;;;;5.21;81.65;100831.13;126492;1095;25059;-57
2020/12/16 09:01:41;;;;;;;48.25;24.45;;;;;;;5.23;81.27;100834.23;126579;1097;23686;-57
2020/12/16 09:04:22;;;;;;;57.20;25.93;;;;;;;5.24;81.56;100828.27;126677;1095;23366;-58
2020/12/16 09:07:04;;;;;;;48.47;22.73;;;;;;;5.27;81.40;100843.24;126592;1097;23445;-59
2020/12/16 09:09:35;;;;;;;52.10;25.73;;;;;;;5.28;81.67;100840.04;127233;1096;23403;-58
2020/12/16 09:12:13;;;;;;;48.33;21.93;;;;;;;5.31;81.36;100836.43;126779;1095;23372;-57
2020/12/16 09:14:50;;;;;;;50.87;21.53;;;;;;;5.33;81.61;100831.24;126585;1095;23328;-57
2020/12/16 09:17:22;;;;;;;52.23;21.53;;;;;;;5.36;81.62;100833.14;126624;1095;23498;-57
2020/12/16 09:19:52;;;;;;;46.07;19.83;;;;;;;5.41;81.26;100835.41;126542;1095;28232;-58
2020/12/16 09:22:25;;;;;;;44.77;19.75;;;;;;;5.43;81.27;100834.97;126292;1096;23319;-57
2020/12/16 09:24:55;;;;;;;47.63;21.43;;;;;;;5.46;81.17;100834.88;126559;1096;23363;-58
2020/12/16 09:27:25;;;;;;;51.95;22.90;;;;;;;5.45;81.27;100838.88;126483;1095;28511;-56
2020/12/16 09:29:56;;;;;;;57.00;24.40;;;;;;;5.45;81.21;100836.11;126576;1095;23334;-57
2020/12/16 09:32:27;;;;;;;57.00;23.50;;;;;;;5.48;81.15;100840.02;126547;1097;23357;-57
2020/12/16 09:34:57;;;;;;;51.37;22.90;;;;;;;5.51;81.32;100847.45;126762;1095;23380;-56
2020/12/16 09:37:33;;;;;;;;;;;;;;;5.52;81.39;100847.04;126619;1095;25077;-59
2020/12/16 09:40:08;;;;;;;55.40;27.73;;;;;;;5.55;80.83;100843.39;126588;1095;21563;-59
2020/12/16 09:42:52;;;;;;;48.83;23.27;;;;;;;5.56;81.37;100847.73;126185;1095;23378;-59
2020/12/16 09:45:24;;;;;;;50.97;24.50;;;;;;;5.60;80.99;100855.95;126561;1095;23408;-59
2020/12/16 09:47:54;;;;;;;53.17;24.67;;;;;;;5.62;80.98;100854.33;126545;1097;23330;-60
2020/12/16 09:50:27;;;;;;;49.70;23.50;;;;;;;5.66;81.04;100859.77;126921;1095;23419;-58
2020/12/16 09:53:05;;;;;;;45.73;18.53;;;;;;;5.69;80.98;100859.68;126572;1096;23349;-59
2020/12/16 09:55:40;;;;;;;47.87;20.77;;;;;;;5.72;81.29;100858.05;126456;1095;24882;-59
2020/12/16 09:58:11;;;;;;;45.00;19.57;;;;;;;5.73;81.28;100860.37;126510;1095;23389;-60
2020/12/16 10:00:43;;;;;;;44.07;20.77;;;;;;;5.74;80.73;100863.94;126502;1095;23520;-60
2020/12/16 10:03:15;;;;;;;47.47;22.63;;;;;;;5.79;80.91;100862.65;126663;1096;23447;-58
2020/12/16 10:05:46;;;;;;;44.73;21.33;;;;;;;5.85;81.05;100863.72;126961;1095;23454;-58
2020/12/16 10:08:16;;;;;;;44.20;22.43;;;;;;;5.86;81.31;100856.95;126605;1095;23418;-60
2020/12/16 10:10:48;;;;;;;42.03;18.45;;;;;;;5.90;80.97;100854.91;126890;1090;25229;-57
2020/12/16 10:13:21;;;;;;;45.73;21.60;;;;;;;5.92;81.24;100867.09;126435;1095;23318;-58
2020/12/16 10:15:53;;;;;;;45.43;19.77;;;;;;;5.94;80.64;100858.37;126463;1096;23366;-60
2020/12/16 10:18:23;;;;;;;46.57;20.73;;;;;;;5.98;80.85;100862.59;126431;1095;26490;-58
2020/12/16 10:20:54;;;;;;;42.50;21.23;;;;;;;6.01;81.23;100863.72;126685;1096;23425;-59
2020/12/16 10:23:24;;;;;;;51.47;23.20;;;;;;;6.04;80.93;100860.09;126577;1095;23324;-60
2020/12/16 10:25:54;;;;;;;49.67;23.33;;;;;;;6.07;81.04;100865.55;126365;1095;27514;-59
2020/12/16 10:28:25;;;;;;;45.23;22.50;;;;;;;6.09;80.83;100862.33;126593;1095;23329;-56
2020/12/16 10:30:55;;;;;;;49.53;22.87;;;;;;;6.09;80.57;100862.33;126604;1090;28298;-59
2020/12/16 10:33:26;;;;;;;50.70;21.90;;;;;;;6.07;80.20;100860.00;126397;1097;26366;-57
2020/12/16 10:35:55;;;;;;;51.30;24.07;;;;;;;6.07;81.03;100864.77;126513;1096;23536;-58
2020/12/16 10:38:25;;;;;;;53.10;25.17;;;;;;;6.08;80.77;100858.80;127096;1095;23509;-58
2020/12/16 10:40:55;;;;;;;55.08;25.30;;;;;;;6.10;80.54;100864.69;126856;1095;23330;-59
2020/12/16 10:43:25;;;;;;;51.68;24.67;;;;;;;6.11;80.39;100857.13;127101;1095;23432;-60
2020/12/16 10:45:55;;;;;;;55.03;25.90;;;;;;;6.11;80.83;100859.91;126250;1097;26364;-60
2020/12/16 10:48:26;;;;;;;53.17;26.73;;;;;;;6.10;80.66;100859.15;126533;1095;25216;-57
2020/12/16 10:50:58;;;;;;;54.20;23.27;;;;;;;6.14;80.44;100864.59;126578;1096;23373;-59
2020/12/16 10:53:28;;;;;;;57.63;27.83;;;;;;;6.15;80.76;100863.37;126816;1095;23308;-58
2020/12/16 10:55:59;;;;;;;;;;;;;;;6.16;80.78;100862.95;126803;1095;23378;-59
2020/12/16 10:58:27;;;;;;;;;;;;;;;6.18;80.76;100856.97;126555;1095;21685;-61
2020/12/16 11:00:57;;;;;;;56.83;29.20;;;;;;;6.20;80.77;100860.09;126815;1095;23302;-58
2020/12/16 11:03:26;;;;;;;64.53;31.67;;;;;;;6.18;80.39;100848.66;126805;1095;23420;-59
2020/12/16 11:05:56;;;;;;;60.67;30.67;;;;;;;6.15;80.65;100847.52;126765;1095;23520;-58
2020/12/16 11:08:25;;;;;;;61.33;33.70;;;;;;;6.17;80.32;100852.62;127188;1095;23366;-60
2020/12/16 11:10:58;;;;;;;77.63;36.47;;;;;;;6.17;80.33;100850.64;126945;1096;23447;-58
2020/12/16 11:13:27;;;;;;;71.40;33.10;;;;;;;6.19;80.29;100850.20;126789;1095;25077;-58
2020/12/16 11:15:58;;;;;;;78.95;36.95;;;;;;;6.22;80.12;100846.56;126516;1095;23307;-58
2020/12/16 11:18:27;;;;;;;;;;;;;;;6.23;80.21;100842.56;126730;1095;23323;-60
2020/12/16 11:20:57;;;;;;;66.73;31.77;;;;;;;6.25;80.36;100835.38;126382;1095;24199;-59
2020/12/16 11:23:30;;;;;;;66.47;34.90;;;;;;;6.28;80.24;100834.52;126676;1095;23312;-59
2020/12/16 11:25:59;;;;;;;66.53;34.75;;;;;;;6.29;79.96;100833.29;126570;1095;23366;-60
2020/12/16 11:28:31;;;;;;;62.60;30.80;;;;;;;6.27;80.00;100834.97;127325;1090;23389;-61
2020/12/16 11:31:03;;;;;;;60.38;28.25;;;;;;;6.27;80.17;100835.72;126522;1095;23366;-60
2020/12/16 11:33:34;;;;;;;56.37;27.73;;;;;;;6.28;80.26;100834.52;127055;1095;25082;-58